createdAt,value
2023-01-19T00:00:49.853Z,4.82
2023-01-19T00:03:37.004Z,4.95
2023-01-19T00:06:23.133Z,4.47
2023-01-19T00:09:08.945Z,4.78
2023-01-19T00:11:54.753Z,4.97
2023-01-19T00:14:40.628Z,4.82
2023-01-19T00:17:26.330Z,4.82
2023-01-19T00:20:12.383Z,3.92
2023-01-19T00:22:59.100Z,4.75
2023-01-19T00:25:45.317Z,4.38
2023-01-19T00:28:31.164Z,4.72
2023-01-19T00:31:16.972Z,4.35
2023-01-19T00:34:04.211Z,4.60
2023-01-19T00:36:50.448Z,5.30
2023-01-19T00:39:36.237Z,4.43
2023-01-19T00:42:40.233Z,4.68
2023-01-19T00:45:26.875Z,5.88
2023-01-19T00:48:13.539Z,5.32
2023-01-19T00:51:00.134Z,5.30
2023-01-19T00:53:46.555Z,5.47
2023-01-19T00:56:32.488Z,5.80
2023-01-19T00:59:18.599Z,6.05
2023-01-19T01:02:04.712Z,6.82
2023-01-19T01:04:55.000Z,5.35
2023-01-19T01:07:41.804Z,4.93
2023-01-19T01:10:28.962Z,5.78
2023-01-19T01:13:19.893Z,5.45
2023-01-19T01:16:10.015Z,5.30
2023-01-19T01:18:55.956Z,5.60
2023-01-19T01:21:42.124Z,5.22
2023-01-19T01:24:28.209Z,6.53
2023-01-19T01:27:14.043Z,6.20
2023-01-19T01:29:59.989Z,5.53
2023-01-19T01:32:45.871Z,5.97
2023-01-19T01:35:33.478Z,6.15
2023-01-19T01:38:19.647Z,5.40
2023-01-19T01:41:05.431Z,4.95
2023-01-19T01:43:54.939Z,5.60
2023-01-19T01:46:40.729Z,5.95
2023-01-19T01:49:26.581Z,5.00
2023-01-19T01:52:14.062Z,5.25
2023-01-19T01:55:01.349Z,4.90
2023-01-19T01:57:51.290Z,7.00
2023-01-19T02:00:56.970Z,5.03
2023-01-19T02:03:43.006Z,4.95
2023-01-19T02:06:29.027Z,5.65
2023-01-19T02:09:33.416Z,4.78
2023-01-19T02:12:37.747Z,4.30
2023-01-19T02:15:23.758Z,4.55
2023-01-19T02:18:10.572Z,4.25
2023-01-19T02:21:11.754Z,5.22
2023-01-19T02:23:59.266Z,4.85
2023-01-19T02:26:47.063Z,3.83
2023-01-19T02:29:33.437Z,3.80
2023-01-19T02:32:19.248Z,4.53
2023-01-19T02:35:05.943Z,4.43
2023-01-19T02:37:53.112Z,4.97
2023-01-19T02:40:41.910Z,9.30
2023-01-19T02:43:29.026Z,6.07
2023-01-19T02:46:18.432Z,4.65
2023-01-19T02:49:04.607Z,3.55
2023-01-19T02:51:50.470Z,5.20
2023-01-19T02:54:48.504Z,3.72
2023-01-19T02:57:49.458Z,4.03
2023-01-19T03:00:47.348Z,4.72
2023-01-19T03:03:56.434Z,5.53
2023-01-19T03:07:13.645Z,4.45
2023-01-19T03:10:05.459Z,3.00
2023-01-19T03:12:59.236Z,4.10
2023-01-19T03:15:58.495Z,4.15
2023-01-19T03:18:47.455Z,3.65
2023-01-19T03:21:34.499Z,3.13
2023-01-19T03:24:21.895Z,3.72
2023-01-19T03:27:32.407Z,4.03
2023-01-19T03:30:24.761Z,3.97
2023-01-19T03:33:16.652Z,3.80
2023-01-19T03:36:06.138Z,4.57
2023-01-19T03:38:53.150Z,4.00
2023-01-19T03:41:39.887Z,9.60
2023-01-19T03:44:27.819Z,12.02
2023-01-19T03:47:15.067Z,11.60
2023-01-19T03:50:02.670Z,8.68
2023-01-19T03:53:03.507Z,6.38
2023-01-19T03:55:51.449Z,5.60
2023-01-19T03:58:37.474Z,5.10
2023-01-19T04:01:23.934Z,4.38
2023-01-19T04:04:09.920Z,4.82
2023-01-19T04:06:55.711Z,5.55
2023-01-19T04:09:41.436Z,5.50
2023-01-19T04:12:27.281Z,4.25
2023-01-19T04:15:13.086Z,4.63
2023-01-19T04:18:00.500Z,4.43
2023-01-19T04:20:46.337Z,4.30
2023-01-19T04:23:32.392Z,4.20
2023-01-19T04:26:18.642Z,4.45
2023-01-19T04:29:04.520Z,4.40
2023-01-19T04:31:50.203Z,5.22
2023-01-19T04:34:36.204Z,4.85
2023-01-19T04:37:22.109Z,4.68
2023-01-19T04:40:09.194Z,4.82
2023-01-19T04:42:55.041Z,6.35
2023-01-19T04:45:40.666Z,5.13
2023-01-19T04:48:26.624Z,5.22
2023-01-19T04:51:12.506Z,4.55
2023-01-19T04:53:58.436Z,5.40
2023-01-19T04:56:44.272Z,5.97
2023-01-19T04:59:30.293Z,5.60
2023-01-19T05:02:16.327Z,5.57
2023-01-19T05:05:03.067Z,6.03
2023-01-19T05:07:49.102Z,6.95
2023-01-19T05:10:36.644Z,5.68
2023-01-19T05:13:22.365Z,6.95
2023-01-19T05:16:08.512Z,4.75
2023-01-19T05:18:54.706Z,2.85
2023-01-19T05:21:40.584Z,2.60
2023-01-19T05:24:26.504Z,3.03
2023-01-19T05:27:12.732Z,3.17
2023-01-19T05:29:58.721Z,2.25
2023-01-19T05:32:44.530Z,2.70
2023-01-19T05:35:35.973Z,7.05
2023-01-19T05:38:34.365Z,7.50
2023-01-19T05:41:20.944Z,8.23
2023-01-19T05:44:06.882Z,8.80
2023-01-19T05:46:52.725Z,10.50
2023-01-19T05:49:38.602Z,8.85
2023-01-19T05:52:27.166Z,7.80
2023-01-19T05:55:15.534Z,8.25
2023-01-19T05:58:01.483Z,6.72
2023-01-19T06:00:47.538Z,7.18
2023-01-19T06:03:34.559Z,6.95
2023-01-19T06:06:20.431Z,6.57
2023-01-19T06:09:07.899Z,5.47
2023-01-19T06:11:55.719Z,5.32
2023-01-19T06:14:41.456Z,5.88
2023-01-19T06:17:27.277Z,5.78
2023-01-19T06:20:14.271Z,5.43
2023-01-19T06:23:00.297Z,5.32
2023-01-19T06:25:46.923Z,5.85
2023-01-19T06:28:32.714Z,6.38
2023-01-19T06:31:19.151Z,5.47
2023-01-19T06:34:05.124Z,3.58
2023-01-19T06:36:51.263Z,2.83
2023-01-19T06:39:40.995Z,3.20
2023-01-19T06:42:27.063Z,2.78
2023-01-19T06:45:12.705Z,3.63
2023-01-19T06:47:58.656Z,4.28
2023-01-19T06:50:48.348Z,3.15
2023-01-19T06:53:34.413Z,5.13
2023-01-19T06:56:20.290Z,5.60
2023-01-19T06:59:06.880Z,5.93
2023-01-19T07:01:52.819Z,3.10
2023-01-19T07:04:38.920Z,2.03
2023-01-19T07:07:25.280Z,2.95
2023-01-19T07:10:12.191Z,2.63
2023-01-19T07:12:58.753Z,2.83
2023-01-19T07:15:45.209Z,3.00
2023-01-19T07:18:31.870Z,2.20
2023-01-19T07:21:18.566Z,2.38
2023-01-19T07:24:04.510Z,1.70
2023-01-19T07:26:50.070Z,2.42
2023-01-19T07:29:35.994Z,1.98
2023-01-19T07:32:21.913Z,2.75
2023-01-19T07:35:08.528Z,2.42
2023-01-19T07:37:54.553Z,1.70
2023-01-19T07:40:40.424Z,2.90
2023-01-19T07:43:26.392Z,5.68
2023-01-19T07:46:12.471Z,4.03
2023-01-19T07:48:58.169Z,3.33
2023-01-19T07:51:44.010Z,4.25
2023-01-19T07:54:29.853Z,3.70
2023-01-19T07:57:15.650Z,2.83
2023-01-19T08:00:01.592Z,3.67
2023-01-19T08:02:51.329Z,3.30
2023-01-19T08:05:37.493Z,3.60
2023-01-19T08:08:23.413Z,3.03
2023-01-19T08:11:09.605Z,3.05
2023-01-19T08:13:55.485Z,2.00
2023-01-19T08:16:41.444Z,2.95
2023-01-19T08:19:27.268Z,4.07
2023-01-19T08:22:12.999Z,4.70
2023-01-19T08:24:58.787Z,5.55
2023-01-19T08:27:45.023Z,7.10
2023-01-19T08:30:31.275Z,6.13
2023-01-19T08:33:17.449Z,12.32
2023-01-19T08:36:03.452Z,14.43
2023-01-19T08:38:49.863Z,13.40
2023-01-19T08:41:35.932Z,10.57
2023-01-19T08:44:22.207Z,8.65
2023-01-19T08:47:09.083Z,10.07
2023-01-19T08:49:54.933Z,12.85
2023-01-19T08:52:40.791Z,11.60
2023-01-19T08:55:27.279Z,14.25
2023-01-19T08:58:13.037Z,12.23
2023-01-19T09:01:00.714Z,17.85
2023-01-19T09:03:48.108Z,15.70
2023-01-19T09:06:34.320Z,18.77
2023-01-19T09:09:20.652Z,20.42
2023-01-19T09:12:06.553Z,18.67
2023-01-19T09:14:52.365Z,14.65
2023-01-19T09:17:38.461Z,19.67
2023-01-19T09:20:24.242Z,14.20
2023-01-19T09:23:14.887Z,10.70
2023-01-19T09:26:03.191Z,7.82
2023-01-19T09:43:02.976Z,16.20
2023-01-19T09:45:57.060Z,30.02
2023-01-19T09:48:53.031Z,29.98
2023-01-19T09:51:41.510Z,25.88
2023-01-19T09:54:36.008Z,22.25
2023-01-19T09:57:23.364Z,29.30
2023-01-19T10:00:17.192Z,31.50
2023-01-19T10:03:14.789Z,35.97
2023-01-19T10:06:06.287Z,29.02
2023-01-19T10:09:25.291Z,27.00
2023-01-19T10:12:19.853Z,29.98
2023-01-19T10:15:17.917Z,29.35
2023-01-19T10:18:13.341Z,28.45
2023-01-19T10:21:29.170Z,30.45
2023-01-19T10:24:22.649Z,26.90
2023-01-19T10:27:21.844Z,30.50
2023-01-19T10:30:10.447Z,26.45
2023-01-19T10:32:56.822Z,24.33
2023-01-19T10:35:42.941Z,24.55
2023-01-19T10:38:30.449Z,21.08
2023-01-19T10:41:24.344Z,19.58
2023-01-19T10:44:11.215Z,13.10
2023-01-19T10:46:58.975Z,11.10
2023-01-19T10:49:45.027Z,9.25
2023-01-19T10:52:31.998Z,8.23
2023-01-19T10:55:39.598Z,8.60
2023-01-19T10:58:31.133Z,15.93
2023-01-19T11:01:24.204Z,12.88
2023-01-19T11:07:26.371Z,7.75
2023-01-19T11:10:15.485Z,10.05
2023-01-19T11:13:07.759Z,12.07
2023-01-19T11:15:57.599Z,10.70
2023-01-19T11:18:43.894Z,9.73
2023-01-19T11:21:30.901Z,6.68
2023-01-19T11:24:17.161Z,7.55
2023-01-19T11:27:03.783Z,5.50
2023-01-19T11:29:59.359Z,6.05
2023-01-19T11:32:46.472Z,10.18
2023-01-19T11:35:40.264Z,10.20
2023-01-19T11:38:27.422Z,13.60
2023-01-19T11:41:27.295Z,8.93
2023-01-19T11:44:27.054Z,7.03
2023-01-19T11:47:17.223Z,6.00
2023-01-19T11:50:26.012Z,4.60
2023-01-19T11:53:24.252Z,4.72
2023-01-19T11:56:11.578Z,5.43
2023-01-19T11:58:57.819Z,6.35
2023-01-19T12:01:52.393Z,7.43
2023-01-19T12:04:39.782Z,6.88
2023-01-19T12:07:30.313Z,6.13
2023-01-19T12:10:25.461Z,6.13
2023-01-19T12:13:31.755Z,14.48
2023-01-19T12:16:22.173Z,8.32
2023-01-19T12:19:15.116Z,13.30
2023-01-19T12:22:01.947Z,12.18
2023-01-19T12:24:55.220Z,20.48
2023-01-19T12:27:42.739Z,15.02
2023-01-19T12:30:29.679Z,17.52
2023-01-19T12:33:25.336Z,12.77
2023-01-19T12:36:17.507Z,12.30
2023-01-19T12:39:04.744Z,11.73
2023-01-19T12:42:15.187Z,9.90
2023-01-19T12:45:09.171Z,10.13
2023-01-19T12:47:55.390Z,13.77
2023-01-19T12:50:45.972Z,12.27
2023-01-19T12:53:31.835Z,12.82
2023-01-19T12:56:17.974Z,12.73
2023-01-19T12:59:04.654Z,14.95
2023-01-19T13:02:18.396Z,12.82
2023-01-19T13:05:07.340Z,12.93
2023-01-19T13:08:02.648Z,10.25
2023-01-19T13:11:15.903Z,16.10
2023-01-19T13:14:01.651Z,11.80
2023-01-19T13:16:59.090Z,9.38
2023-01-19T13:19:49.530Z,14.25
2023-01-19T13:22:50.227Z,12.55
2023-01-19T13:25:36.474Z,11.15
2023-01-19T13:28:31.232Z,13.75
2023-01-19T13:31:17.541Z,15.57
2023-01-19T13:34:04.312Z,16.73
2023-01-19T13:36:52.778Z,16.58
2023-01-19T13:39:42.366Z,18.40
2023-01-19T13:42:36.437Z,18.65
2023-01-19T13:45:33.913Z,15.05
2023-01-19T13:48:22.507Z,13.93
2023-01-19T13:51:17.866Z,11.07
2023-01-19T13:54:05.724Z,10.23
2023-01-19T13:56:51.887Z,18.42
2023-01-19T13:59:37.727Z,18.00
2023-01-19T14:02:23.612Z,12.98
2023-01-19T14:05:14.517Z,12.30
2023-01-19T14:08:03.579Z,11.23
2023-01-19T14:10:52.345Z,9.85
2023-01-19T14:13:41.692Z,12.50
2023-01-19T14:16:27.490Z,12.65
2023-01-19T14:19:13.406Z,19.95
2023-01-19T14:22:04.481Z,17.02
2023-01-19T14:24:50.275Z,12.55
2023-01-19T14:27:36.396Z,10.05
2023-01-19T14:30:25.198Z,10.13
2023-01-19T14:33:58.619Z,15.98
2023-01-19T14:36:44.398Z,27.92
2023-01-19T14:39:33.366Z,29.15
2023-01-19T14:42:24.078Z,16.85
2023-01-19T14:45:40.505Z,18.67
2023-01-19T14:48:29.379Z,10.13
2023-01-19T14:51:21.565Z,8.80
2023-01-19T14:54:15.877Z,15.52
2023-01-19T14:57:01.954Z,11.85
2023-01-19T14:59:49.740Z,9.73
2023-01-19T15:02:35.828Z,8.18
2023-01-19T15:05:21.547Z,7.82
2023-01-19T15:08:07.869Z,8.13
2023-01-19T15:10:53.636Z,7.47
2023-01-19T15:13:40.609Z,12.10
2023-01-19T15:16:28.020Z,14.85
2023-01-19T15:19:15.277Z,15.48
2023-01-19T15:22:01.025Z,14.32
2023-01-19T15:24:47.083Z,12.40
2023-01-19T15:27:32.993Z,11.43
2023-01-19T15:30:24.205Z,12.10
2023-01-19T15:33:25.478Z,9.77
2023-01-19T15:36:18.163Z,10.20
2023-01-19T15:39:04.628Z,11.35
2023-01-19T15:41:50.823Z,9.73
2023-01-19T15:44:36.857Z,9.20
2023-01-19T15:47:22.563Z,6.50
2023-01-19T15:50:09.200Z,11.98
2023-01-19T15:52:55.401Z,10.25
2023-01-19T15:55:41.215Z,9.85
2023-01-19T15:58:27.558Z,8.65
2023-01-19T16:01:15.849Z,12.13
2023-01-19T16:04:03.632Z,11.85
2023-01-19T16:06:50.189Z,11.73
2023-01-19T16:09:36.124Z,9.30
2023-01-19T16:12:22.038Z,11.20
2023-01-19T16:15:08.469Z,10.63
2023-01-19T16:17:54.620Z,9.73
2023-01-19T16:20:40.469Z,10.32
2023-01-19T16:23:26.481Z,11.25
2023-01-19T16:26:34.790Z,9.73
2023-01-19T16:29:21.225Z,10.70
2023-01-19T16:32:07.052Z,11.77
2023-01-19T16:34:52.960Z,10.75
2023-01-19T16:37:39.641Z,10.80
2023-01-19T16:40:26.363Z,9.70
2023-01-19T16:43:13.034Z,12.77
2023-01-19T16:46:02.870Z,13.43
2023-01-19T16:48:50.313Z,11.88
2023-01-19T16:51:36.653Z,16.30
2023-01-19T16:54:26.034Z,35.50
2023-01-19T16:57:11.971Z,19.27
2023-01-19T16:59:58.077Z,21.70
2023-01-19T17:02:44.231Z,20.15
2023-01-19T17:05:29.921Z,15.90
2023-01-19T17:08:15.716Z,16.30
2023-01-19T17:11:07.735Z,14.70
2023-01-19T17:14:02.102Z,14.60
2023-01-19T17:16:49.156Z,16.45
2023-01-19T17:19:35.457Z,20.15
2023-01-19T17:22:21.904Z,21.35
2023-01-19T17:25:08.448Z,24.63
2023-01-19T17:27:54.305Z,33.53
2023-01-19T17:30:40.404Z,23.60
2023-01-19T17:33:26.722Z,25.88
2023-01-19T17:36:14.338Z,25.20
2023-01-19T17:39:04.454Z,27.85
2023-01-19T17:41:50.617Z,20.15
2023-01-19T17:44:36.538Z,21.63
2023-01-19T17:47:25.504Z,21.80
2023-01-19T17:50:12.087Z,20.55
2023-01-19T17:52:58.439Z,27.48
2023-01-19T17:55:44.481Z,32.28
2023-01-19T17:58:31.633Z,28.90
2023-01-19T18:01:25.888Z,26.95
2023-01-19T18:04:14.810Z,29.17
2023-01-19T18:07:00.596Z,23.48
2023-01-19T18:09:46.421Z,26.73
2023-01-19T18:12:32.480Z,23.23
2023-01-19T18:15:18.588Z,20.83
2023-01-19T18:18:04.674Z,25.20
2023-01-19T18:20:50.901Z,16.52
2023-01-19T18:23:37.247Z,15.40
2023-01-19T18:26:23.163Z,15.57
2023-01-19T18:29:09.156Z,19.42
2023-01-19T18:31:54.941Z,16.15
2023-01-19T18:34:40.852Z,15.55
2023-01-19T18:37:26.662Z,16.23
2023-01-19T18:40:12.910Z,16.67
2023-01-19T18:42:58.875Z,17.75
2023-01-19T18:45:48.203Z,18.55
2023-01-19T18:48:34.620Z,16.60
2023-01-19T18:51:20.873Z,15.65
2023-01-19T18:54:06.980Z,16.67
2023-01-19T18:56:53.046Z,17.95
2023-01-19T18:59:38.947Z,18.08
2023-01-19T19:02:24.781Z,17.10
2023-01-19T19:05:10.945Z,16.38
2023-01-19T19:07:57.122Z,19.75
2023-01-19T19:10:43.706Z,18.33
2023-01-19T19:13:29.617Z,20.60
2023-01-19T19:16:15.925Z,18.70
2023-01-19T19:19:02.461Z,14.43
2023-01-19T19:21:49.029Z,13.80
2023-01-19T19:24:35.590Z,14.50
2023-01-19T19:27:21.431Z,15.90
2023-01-19T19:30:07.842Z,14.23
2023-01-19T19:32:56.049Z,12.85
2023-01-19T19:35:41.865Z,14.00
2023-01-19T19:38:28.714Z,13.98
2023-01-19T19:41:23.565Z,15.45
2023-01-19T19:44:13.016Z,15.15
2023-01-19T19:46:59.272Z,16.80
2023-01-19T19:49:45.314Z,18.40
2023-01-19T19:52:32.121Z,18.15
2023-01-19T19:55:18.117Z,16.65
2023-01-19T19:58:04.020Z,16.23
2023-01-19T20:00:50.158Z,21.17
2023-01-19T20:03:36.395Z,18.25
2023-01-19T20:06:24.912Z,16.98
2023-01-19T20:09:14.865Z,18.52
2023-01-19T20:12:01.262Z,19.90
2023-01-19T20:14:47.535Z,19.52
2023-01-19T20:17:33.795Z,24.13
2023-01-19T20:20:19.761Z,23.67
2023-01-19T20:23:05.740Z,23.13
2023-01-19T20:25:52.072Z,26.33
2023-01-19T20:28:37.986Z,30.58
2023-01-19T20:31:27.515Z,29.63
2023-01-19T20:34:15.400Z,30.17
2023-01-19T20:37:02.632Z,34.42
2023-01-19T20:39:48.469Z,47.10
2023-01-19T20:42:34.518Z,50.67
2023-01-19T20:45:20.856Z,65.32
2023-01-19T20:48:06.925Z,63.45
2023-01-19T20:51:07.122Z,61.72
2023-01-19T20:53:53.259Z,67.90
2023-01-19T20:56:41.249Z,61.65
2023-01-19T20:59:27.973Z,58.90
2023-01-19T21:02:16.187Z,46.55
2023-01-19T21:05:02.053Z,41.10
2023-01-19T21:07:48.764Z,37.05
2023-01-19T21:10:34.966Z,33.63
2023-01-19T21:13:20.955Z,39.60
2023-01-19T21:16:07.856Z,44.80
2023-01-19T21:18:54.965Z,44.25
2023-01-19T21:21:41.245Z,49.95
2023-01-19T21:24:27.452Z,54.08
2023-01-19T21:27:13.362Z,51.88
2023-01-19T21:30:01.190Z,50.80
2023-01-19T21:32:47.325Z,46.53
2023-01-19T21:35:33.476Z,44.20
2023-01-19T21:38:19.912Z,45.97
2023-01-19T21:41:12.898Z,47.70
2023-01-19T21:44:00.793Z,44.70
2023-01-19T21:46:46.749Z,45.75
2023-01-19T21:49:32.649Z,41.90
2023-01-19T21:52:18.568Z,39.28
2023-01-19T21:55:05.107Z,38.55
2023-01-19T21:57:55.135Z,36.08
2023-01-19T22:00:41.846Z,32.40
2023-01-19T22:03:28.827Z,29.95
2023-01-19T22:06:15.279Z,29.63
2023-01-19T22:09:01.649Z,30.95
2023-01-19T22:11:47.945Z,25.67
2023-01-19T22:14:33.876Z,27.15
2023-01-19T22:17:20.126Z,27.63
2023-01-19T22:20:06.937Z,29.17
2023-01-19T22:22:53.079Z,27.75
2023-01-19T22:25:38.996Z,28.40
2023-01-19T22:28:24.801Z,26.40
2023-01-19T22:31:17.897Z,27.73
2023-01-19T22:34:04.104Z,28.30
2023-01-19T22:36:50.455Z,28.40
2023-01-19T22:39:36.438Z,24.98
2023-01-19T22:42:22.462Z,24.08
2023-01-19T22:45:09.179Z,24.08
2023-01-19T22:47:54.952Z,22.10
2023-01-19T22:50:40.753Z,21.50
2023-01-19T22:53:26.861Z,21.55
2023-01-19T22:56:15.418Z,22.58
2023-01-19T22:59:01.594Z,25.02
2023-01-19T23:01:49.540Z,24.17
2023-01-19T23:04:35.409Z,22.95
2023-01-19T23:07:21.361Z,22.75
2023-01-19T23:10:07.975Z,21.00
2023-01-19T23:12:53.712Z,21.02
2023-01-19T23:15:39.620Z,22.25
2023-01-19T23:18:25.323Z,19.63
2023-01-19T23:21:16.753Z,19.65
2023-01-19T23:24:04.111Z,25.52
2023-01-19T23:26:50.489Z,26.38
2023-01-19T23:29:36.339Z,23.77
2023-01-19T23:32:22.197Z,25.13
2023-01-19T23:35:10.951Z,27.60
2023-01-19T23:37:57.440Z,27.77
2023-01-19T23:40:43.472Z,29.42
2023-01-19T23:43:29.408Z,29.50
2023-01-19T23:46:16.504Z,34.97
2023-01-19T23:49:02.859Z,33.95
2023-01-19T23:51:48.978Z,37.47
2023-01-19T23:54:35.253Z,35.88
2023-01-19T23:57:21.147Z,33.10
